Terminal Aerodrome Forecast
Issued by NWS

Home | Current Version | Previous Version | Text Only | Print | Product List | Glossary On
Versions: 1 2 3 4 5 6 7 8 9 10 11 12 13 14 15 16
000
FTUS45 KTFX 220900 AAB
TAFBZN
TAF AMD
KBZN 220900Z 2209/2306 27006KT P6SM OVC005
      TEMPO 2209/2212 6SM -RA OVC015
     FM221200 VRB05KT P6SM -SHRA SCT030 BKN050
     FM222200 33009KT 5SM -RA BR BKN020 OVC040=

USA.gov is the U.S. government's official web portal to all federal, state and local government web resources and services.